sensor_id;sensor_type;location;lat;lon;timestamp;P1;durP1;ratioP1;P2;durP2;ratioP2
38083;SDS011;23894;51.466;7.444;2022-12-18T00:01:49;44.35;;;29.08;;
38083;SDS011;23894;51.466;7.444;2022-12-18T00:03:50;42.70;;;31.70;;
38083;SDS011;23894;51.466;7.444;2022-12-18T00:05:51;49.10;;;31.83;;
38083;SDS011;23894;51.466;7.444;2022-12-18T00:09:52;43.47;;;28.80;;
38083;SDS011;23894;51.466;7.444;2022-12-18T00:11:53;52.72;;;33.22;;
38083;SDS011;23894;51.466;7.444;2022-12-18T00:13:54;55.65;;;35.88;;
38083;SDS011;23894;51.466;7.444;2022-12-18T00:16:00;50.88;;;33.38;;
38083;SDS011;23894;51.466;7.444;2022-12-18T00:18:03;48.42;;;29.83;;
38083;SDS011;23894;51.466;7.444;2022-12-18T00:20:06;45.22;;;29.20;;
38083;SDS011;23894;51.466;7.444;2022-12-18T00:22:07;48.28;;;31.15;;
38083;SDS011;23894;51.466;7.444;2022-12-18T00:24:08;50.13;;;30.25;;
38083;SDS011;23894;51.466;7.444;2022-12-18T00:26:17;48.67;;;30.77;;
38083;SDS011;23894;51.466;7.444;2022-12-18T00:28:20;47.15;;;30.20;;
38083;SDS011;23894;51.466;7.444;2022-12-18T00:30:21;51.45;;;32.17;;
38083;SDS011;23894;51.466;7.444;2022-12-18T00:32:21;44.95;;;32.17;;
38083;SDS011;23894;51.466;7.444;2022-12-18T00:34:22;51.60;;;32.30;;
38083;SDS011;23894;51.466;7.444;2022-12-18T00:36:23;47.00;;;29.95;;
38083;SDS011;23894;51.466;7.444;2022-12-18T00:38:25;54.20;;;32.72;;
38083;SDS011;23894;51.466;7.444;2022-12-18T00:40:26;58.17;;;36.38;;
38083;SDS011;23894;51.466;7.444;2022-12-18T00:42:27;51.22;;;34.80;;
38083;SDS011;23894;51.466;7.444;2022-12-18T00:44:46;55.30;;;35.83;;
38083;SDS011;23894;51.466;7.444;2022-12-18T00:46:47;55.95;;;35.80;;
38083;SDS011;23894;51.466;7.444;2022-12-18T00:48:48;56.95;;;35.72;;
38083;SDS011;23894;51.466;7.444;2022-12-18T00:50:49;54.25;;;35.78;;
38083;SDS011;23894;51.466;7.444;2022-12-18T00:52:50;54.28;;;34.33;;
38083;SDS011;23894;51.466;7.444;2022-12-18T00:56:51;56.23;;;35.87;;
38083;SDS011;23894;51.466;7.444;2022-12-18T00:58:52;56.47;;;35.38;;
38083;SDS011;23894;51.466;7.444;2022-12-18T01:00:53;56.35;;;35.63;;
38083;SDS011;23894;51.466;7.444;2022-12-18T01:04:54;52.43;;;33.60;;
38083;SDS011;23894;51.466;7.444;2022-12-18T01:06:54;55.22;;;32.88;;
38083;SDS011;23894;51.466;7.444;2022-12-18T01:10:56;50.13;;;32.10;;
38083;SDS011;23894;51.466;7.444;2022-12-18T01:12:56;53.40;;;34.40;;
38083;SDS011;23894;51.466;7.444;2022-12-18T01:16:57;52.27;;;33.33;;
38083;SDS011;23894;51.466;7.444;2022-12-18T01:18:58;47.05;;;33.50;;
38083;SDS011;23894;51.466;7.444;2022-12-18T01:20:58;45.92;;;31.17;;
38083;SDS011;23894;51.466;7.444;2022-12-18T01:22:59;43.05;;;27.15;;
38083;SDS011;23894;51.466;7.444;2022-12-18T01:27:00;45.90;;;30.17;;
38083;SDS011;23894;51.466;7.444;2022-12-18T01:29:01;54.90;;;33.25;;
38083;SDS011;23894;51.466;7.444;2022-12-18T01:35:13;51.28;;;33.22;;
38083;SDS011;23894;51.466;7.444;2022-12-18T01:37:14;58.38;;;33.65;;
38083;SDS011;23894;51.466;7.444;2022-12-18T01:39:14;48.60;;;33.88;;
38083;SDS011;23894;51.466;7.444;2022-12-18T01:41:16;59.60;;;35.70;;
38083;SDS011;23894;51.466;7.444;2022-12-18T01:43:18;60.95;;;37.05;;
38083;SDS011;23894;51.466;7.444;2022-12-18T01:45:23;63.00;;;38.65;;
38083;SDS011;23894;51.466;7.444;2022-12-18T01:47:39;58.50;;;36.85;;
38083;SDS011;23894;51.466;7.444;2022-12-18T01:49:44;56.28;;;36.90;;
38083;SDS011;23894;51.466;7.444;2022-12-18T01:51:44;54.60;;;35.47;;
38083;SDS011;23894;51.466;7.444;2022-12-18T01:53:45;44.42;;;28.30;;
38083;SDS011;23894;51.466;7.444;2022-12-18T01:55:50;52.47;;;35.35;;
38083;SDS011;23894;51.466;7.444;2022-12-18T01:57:53;54.60;;;35.10;;
38083;SDS011;23894;51.466;7.444;2022-12-18T01:59:57;54.25;;;35.65;;
38083;SDS011;23894;51.466;7.444;2022-12-18T02:02:01;53.45;;;36.45;;
38083;SDS011;23894;51.466;7.444;2022-12-18T02:04:22;54.28;;;34.97;;
38083;SDS011;23894;51.466;7.444;2022-12-18T02:06:36;57.10;;;36.00;;
38083;SDS011;23894;51.466;7.444;2022-12-18T02:08:45;53.15;;;33.20;;
38083;SDS011;23894;51.466;7.444;2022-12-18T02:11:15;35.58;;;24.38;;
38083;SDS011;23894;51.466;7.444;2022-12-18T02:13:27;54.00;;;34.60;;
38083;SDS011;23894;51.466;7.444;2022-12-18T02:15:39;59.22;;;35.15;;
38083;SDS011;23894;51.466;7.444;2022-12-18T02:17:56;61.70;;;36.45;;
38083;SDS011;23894;51.466;7.444;2022-12-18T02:22:33;48.25;;;31.95;;
38083;SDS011;23894;51.466;7.444;2022-12-18T02:26:59;50.75;;;31.98;;
38083;SDS011;23894;51.466;7.444;2022-12-18T02:29:16;48.10;;;31.73;;
38083;SDS011;23894;51.466;7.444;2022-12-18T02:31:23;47.15;;;30.08;;
38083;SDS011;23894;51.466;7.444;2022-12-18T02:33:27;37.95;;;25.80;;
38083;SDS011;23894;51.466;7.444;2022-12-18T02:35:29;46.03;;;28.63;;
38083;SDS011;23894;51.466;7.444;2022-12-18T02:37:31;44.33;;;28.13;;
38083;SDS011;23894;51.466;7.444;2022-12-18T02:39:34;26.92;;;17.90;;
38083;SDS011;23894;51.466;7.444;2022-12-18T02:41:37;34.33;;;22.60;;
38083;SDS011;23894;51.466;7.444;2022-12-18T02:43:38;39.40;;;24.73;;
38083;SDS011;23894;51.466;7.444;2022-12-18T02:45:56;26.75;;;18.55;;
38083;SDS011;23894;51.466;7.444;2022-12-18T02:47:59;36.25;;;24.60;;
38083;SDS011;23894;51.466;7.444;2022-12-18T02:56:54;31.42;;;20.58;;
38083;SDS011;23894;51.466;7.444;2022-12-18T02:59:06;27.08;;;18.23;;
38083;SDS011;23894;51.466;7.444;2022-12-18T03:01:31;31.00;;;19.45;;
38083;SDS011;23894;51.466;7.444;2022-12-18T03:04:09;25.80;;;17.70;;
38083;SDS011;23894;51.466;7.444;2022-12-18T03:06:29;21.38;;;14.43;;
38083;SDS011;23894;51.466;7.444;2022-12-18T03:08:40;33.08;;;20.15;;
38083;SDS011;23894;51.466;7.444;2022-12-18T03:10:45;32.38;;;22.02;;
38083;SDS011;23894;51.466;7.444;2022-12-18T03:13:00;35.67;;;22.50;;
38083;SDS011;23894;51.466;7.444;2022-12-18T03:17:39;17.55;;;13.02;;
38083;SDS011;23894;51.466;7.444;2022-12-18T03:19:44;19.50;;;12.15;;
38083;SDS011;23894;51.466;7.444;2022-12-18T03:21:47;17.38;;;11.10;;
38083;SDS011;23894;51.466;7.444;2022-12-18T03:23:52;18.48;;;11.95;;
38083;SDS011;23894;51.466;7.444;2022-12-18T03:25:56;18.33;;;12.57;;
38083;SDS011;23894;51.466;7.444;2022-12-18T03:27:59;12.35;;;8.85;;
38083;SDS011;23894;51.466;7.444;2022-12-18T03:30:04;20.38;;;13.55;;
38083;SDS011;23894;51.466;7.444;2022-12-18T03:32:09;12.45;;;9.15;;
38083;SDS011;23894;51.466;7.444;2022-12-18T03:34:15;12.75;;;8.30;;
38083;SDS011;23894;51.466;7.444;2022-12-18T03:36:21;14.57;;;9.52;;
38083;SDS011;23894;51.466;7.444;2022-12-18T03:38:23;18.20;;;11.70;;
38083;SDS011;23894;51.466;7.444;2022-12-18T03:40:26;19.10;;;11.27;;
38083;SDS011;23894;51.466;7.444;2022-12-18T03:42:56;14.60;;;10.18;;
38083;SDS011;23894;51.466;7.444;2022-12-18T03:45:37;12.50;;;8.25;;
38083;SDS011;23894;51.466;7.444;2022-12-18T03:48:18;14.07;;;9.23;;
38083;SDS011;23894;51.466;7.444;2022-12-18T03:50:11;10.45;;;7.57;;
38083;SDS011;23894;51.466;7.444;2022-12-18T03:52:20;9.90;;;6.57;;
38083;SDS011;23894;51.466;7.444;2022-12-18T03:54:35;7.43;;;5.72;;
38083;SDS011;23894;51.466;7.444;2022-12-18T03:56:40;8.18;;;5.85;;
38083;SDS011;23894;51.466;7.444;2022-12-18T03:58:44;7.63;;;5.15;;
38083;SDS011;23894;51.466;7.444;2022-12-18T04:00:47;9.10;;;6.00;;
38083;SDS011;23894;51.466;7.444;2022-12-18T04:02:52;7.65;;;5.30;;
38083;SDS011;23894;51.466;7.444;2022-12-18T04:04:56;10.18;;;5.70;;
38083;SDS011;23894;51.466;7.444;2022-12-18T04:06:59;8.55;;;5.68;;
38083;SDS011;23894;51.466;7.444;2022-12-18T04:09:01;8.00;;;5.30;;
38083;SDS011;23894;51.466;7.444;2022-12-18T04:11:04;9.30;;;5.68;;
38083;SDS011;23894;51.466;7.444;2022-12-18T04:13:05;8.70;;;5.85;;
38083;SDS011;23894;51.466;7.444;2022-12-18T04:15:07;7.20;;;5.15;;
38083;SDS011;23894;51.466;7.444;2022-12-18T04:17:08;7.72;;;5.00;;
38083;SDS011;23894;51.466;7.444;2022-12-18T04:19:08;8.20;;;4.97;;
38083;SDS011;23894;51.466;7.444;2022-12-18T04:21:09;8.43;;;5.80;;
38083;SDS011;23894;51.466;7.444;2022-12-18T04:23:10;8.45;;;5.07;;
38083;SDS011;23894;51.466;7.444;2022-12-18T04:25:10;8.23;;;5.65;;
38083;SDS011;23894;51.466;7.444;2022-12-18T04:27:11;8.38;;;5.15;;
38083;SDS011;23894;51.466;7.444;2022-12-18T04:29:12;7.28;;;5.05;;
38083;SDS011;23894;51.466;7.444;2022-12-18T04:31:13;7.53;;;5.10;;
38083;SDS011;23894;51.466;7.444;2022-12-18T04:33:13;7.03;;;4.78;;
38083;SDS011;23894;51.466;7.444;2022-12-18T04:35:17;7.80;;;4.95;;
38083;SDS011;23894;51.466;7.444;2022-12-18T04:37:17;8.52;;;4.72;;
38083;SDS011;23894;51.466;7.444;2022-12-18T04:39:18;7.63;;;4.57;;
38083;SDS011;23894;51.466;7.444;2022-12-18T04:41:19;8.40;;;5.05;;
38083;SDS011;23894;51.466;7.444;2022-12-18T04:43:19;9.00;;;5.45;;
38083;SDS011;23894;51.466;7.444;2022-12-18T04:45:20;9.30;;;5.50;;
38083;SDS011;23894;51.466;7.444;2022-12-18T04:47:20;7.32;;;5.20;;
38083;SDS011;23894;51.466;7.444;2022-12-18T04:49:21;7.38;;;4.72;;
38083;SDS011;23894;51.466;7.444;2022-12-18T04:51:22;8.02;;;5.07;;
38083;SDS011;23894;51.466;7.444;2022-12-18T04:53:22;8.85;;;5.38;;
38083;SDS011;23894;51.466;7.444;2022-12-18T04:55:23;7.40;;;4.95;;
38083;SDS011;23894;51.466;7.444;2022-12-18T04:57:24;8.50;;;5.13;;
38083;SDS011;23894;51.466;7.444;2022-12-18T04:59:24;7.47;;;5.30;;
38083;SDS011;23894;51.466;7.444;2022-12-18T05:01:25;8.73;;;5.80;;
38083;SDS011;23894;51.466;7.444;2022-12-18T05:03:26;8.32;;;5.60;;
38083;SDS011;23894;51.466;7.444;2022-12-18T05:05:26;7.38;;;5.00;;
38083;SDS011;23894;51.466;7.444;2022-12-18T05:07:27;8.10;;;5.18;;
38083;SDS011;23894;51.466;7.444;2022-12-18T05:09:27;10.05;;;5.53;;
38083;SDS011;23894;51.466;7.444;2022-12-18T05:11:28;9.38;;;5.47;;
38083;SDS011;23894;51.466;7.444;2022-12-18T05:13:29;9.95;;;5.82;;
38083;SDS011;23894;51.466;7.444;2022-12-18T05:15:31;8.80;;;5.93;;
38083;SDS011;23894;51.466;7.444;2022-12-18T05:17:32;8.38;;;5.60;;
38083;SDS011;23894;51.466;7.444;2022-12-18T05:19:33;8.93;;;6.15;;
38083;SDS011;23894;51.466;7.444;2022-12-18T05:21:33;9.10;;;6.25;;
38083;SDS011;23894;51.466;7.444;2022-12-18T05:23:34;8.68;;;5.38;;
38083;SDS011;23894;51.466;7.444;2022-12-18T05:25:35;8.02;;;5.60;;
38083;SDS011;23894;51.466;7.444;2022-12-18T05:27:35;9.02;;;5.70;;
38083;SDS011;23894;51.466;7.444;2022-12-18T05:29:36;9.82;;;6.10;;
38083;SDS011;23894;51.466;7.444;2022-12-18T05:31:36;8.85;;;6.15;;
38083;SDS011;23894;51.466;7.444;2022-12-18T05:33:37;8.98;;;6.15;;
38083;SDS011;23894;51.466;7.444;2022-12-18T05:35:38;7.53;;;5.63;;
38083;SDS011;23894;51.466;7.444;2022-12-18T05:37:38;9.15;;;6.18;;
38083;SDS011;23894;51.466;7.444;2022-12-18T05:39:39;8.02;;;5.22;;
38083;SDS011;23894;51.466;7.444;2022-12-18T05:41:39;10.88;;;5.85;;
38083;SDS011;23894;51.466;7.444;2022-12-18T05:43:40;8.52;;;5.78;;
38083;SDS011;23894;51.466;7.444;2022-12-18T05:45:40;9.63;;;6.25;;
38083;SDS011;23894;51.466;7.444;2022-12-18T05:47:41;9.70;;;6.25;;
38083;SDS011;23894;51.466;7.444;2022-12-18T05:49:42;9.75;;;6.03;;
38083;SDS011;23894;51.466;7.444;2022-12-18T05:51:42;10.77;;;6.63;;
38083;SDS011;23894;51.466;7.444;2022-12-18T05:53:43;8.10;;;5.50;;
38083;SDS011;23894;51.466;7.444;2022-12-18T05:55:43;9.93;;;6.85;;
38083;SDS011;23894;51.466;7.444;2022-12-18T05:57:45;7.43;;;5.50;;
38083;SDS011;23894;51.466;7.444;2022-12-18T05:59:46;8.10;;;5.78;;
38083;SDS011;23894;51.466;7.444;2022-12-18T06:01:46;9.18;;;6.18;;
38083;SDS011;23894;51.466;7.444;2022-12-18T06:03:47;9.68;;;6.30;;
38083;SDS011;23894;51.466;7.444;2022-12-18T06:05:47;9.30;;;5.90;;
38083;SDS011;23894;51.466;7.444;2022-12-18T06:07:48;8.38;;;6.20;;
38083;SDS011;23894;51.466;7.444;2022-12-18T06:09:49;9.38;;;6.00;;
38083;SDS011;23894;51.466;7.444;2022-12-18T06:11:50;8.60;;;6.00;;
38083;SDS011;23894;51.466;7.444;2022-12-18T06:13:52;9.32;;;6.25;;
38083;SDS011;23894;51.466;7.444;2022-12-18T06:15:54;8.77;;;5.55;;
38083;SDS011;23894;51.466;7.444;2022-12-18T06:17:55;9.30;;;5.70;;
38083;SDS011;23894;51.466;7.444;2022-12-18T06:19:55;10.20;;;6.43;;
38083;SDS011;23894;51.466;7.444;2022-12-18T06:21:56;10.18;;;6.35;;
38083;SDS011;23894;51.466;7.444;2022-12-18T06:23:59;11.27;;;6.13;;
38083;SDS011;23894;51.466;7.444;2022-12-18T06:26:05;9.45;;;6.10;;
38083;SDS011;23894;51.466;7.444;2022-12-18T06:28:06;8.40;;;6.03;;
38083;SDS011;23894;51.466;7.444;2022-12-18T06:30:07;9.55;;;6.50;;
38083;SDS011;23894;51.466;7.444;2022-12-18T06:32:08;7.78;;;5.68;;
38083;SDS011;23894;51.466;7.444;2022-12-18T06:34:09;8.05;;;6.15;;
38083;SDS011;23894;51.466;7.444;2022-12-18T06:36:11;10.70;;;6.75;;
38083;SDS011;23894;51.466;7.444;2022-12-18T06:38:12;11.80;;;6.53;;
38083;SDS011;23894;51.466;7.444;2022-12-18T06:40:13;9.65;;;6.15;;
38083;SDS011;23894;51.466;7.444;2022-12-18T06:42:14;8.80;;;6.43;;
38083;SDS011;23894;51.466;7.444;2022-12-18T06:44:14;10.50;;;6.78;;
38083;SDS011;23894;51.466;7.444;2022-12-18T06:46:15;8.90;;;6.25;;
38083;SDS011;23894;51.466;7.444;2022-12-18T06:48:15;8.75;;;6.07;;
38083;SDS011;23894;51.466;7.444;2022-12-18T06:50:16;10.90;;;7.10;;
38083;SDS011;23894;51.466;7.444;2022-12-18T06:52:16;9.85;;;6.85;;
38083;SDS011;23894;51.466;7.444;2022-12-18T06:54:17;10.20;;;6.70;;
38083;SDS011;23894;51.466;7.444;2022-12-18T06:56:18;9.88;;;6.80;;
38083;SDS011;23894;51.466;7.444;2022-12-18T06:58:18;10.75;;;6.88;;
38083;SDS011;23894;51.466;7.444;2022-12-18T07:00:19;10.10;;;6.60;;
38083;SDS011;23894;51.466;7.444;2022-12-18T07:02:19;10.55;;;6.65;;
38083;SDS011;23894;51.466;7.444;2022-12-18T07:04:20;9.75;;;6.55;;
38083;SDS011;23894;51.466;7.444;2022-12-18T07:06:21;10.02;;;6.40;;
38083;SDS011;23894;51.466;7.444;2022-12-18T07:08:24;9.98;;;6.57;;
38083;SDS011;23894;51.466;7.444;2022-12-18T07:12:29;10.30;;;6.35;;
38083;SDS011;23894;51.466;7.444;2022-12-18T07:14:29;9.35;;;6.50;;
38083;SDS011;23894;51.466;7.444;2022-12-18T07:16:30;9.82;;;7.18;;
38083;SDS011;23894;51.466;7.444;2022-12-18T07:18:30;9.18;;;6.53;;
38083;SDS011;23894;51.466;7.444;2022-12-18T07:20:31;9.48;;;6.32;;
38083;SDS011;23894;51.466;7.444;2022-12-18T07:22:31;10.00;;;6.63;;
38083;SDS011;23894;51.466;7.444;2022-12-18T07:24:33;9.48;;;6.80;;
38083;SDS011;23894;51.466;7.444;2022-12-18T07:26:34;8.95;;;6.28;;
38083;SDS011;23894;51.466;7.444;2022-12-18T07:28:35;9.23;;;6.30;;
38083;SDS011;23894;51.466;7.444;2022-12-18T07:30:37;10.18;;;6.90;;
38083;SDS011;23894;51.466;7.444;2022-12-18T07:34:38;9.93;;;6.73;;
38083;SDS011;23894;51.466;7.444;2022-12-18T07:36:39;10.00;;;6.63;;
38083;SDS011;23894;51.466;7.444;2022-12-18T07:38:40;11.52;;;7.05;;
38083;SDS011;23894;51.466;7.444;2022-12-18T07:40:40;10.48;;;6.97;;
38083;SDS011;23894;51.466;7.444;2022-12-18T07:42:41;9.95;;;6.50;;
38083;SDS011;23894;51.466;7.444;2022-12-18T07:44:42;9.70;;;5.88;;
38083;SDS011;23894;51.466;7.444;2022-12-18T07:46:42;10.93;;;7.13;;
38083;SDS011;23894;51.466;7.444;2022-12-18T07:48:43;10.05;;;6.60;;
38083;SDS011;23894;51.466;7.444;2022-12-18T07:50:44;9.73;;;6.20;;
38083;SDS011;23894;51.466;7.444;2022-12-18T07:52:45;10.27;;;6.78;;
38083;SDS011;23894;51.466;7.444;2022-12-18T07:54:45;9.63;;;6.63;;
38083;SDS011;23894;51.466;7.444;2022-12-18T07:56:48;10.77;;;7.07;;
38083;SDS011;23894;51.466;7.444;2022-12-18T07:58:49;10.18;;;6.85;;
38083;SDS011;23894;51.466;7.444;2022-12-18T08:00:49;10.07;;;7.13;;
38083;SDS011;23894;51.466;7.444;2022-12-18T08:02:50;9.23;;;6.60;;
38083;SDS011;23894;51.466;7.444;2022-12-18T08:04:51;10.48;;;7.38;;
38083;SDS011;23894;51.466;7.444;2022-12-18T08:06:52;11.38;;;7.38;;
38083;SDS011;23894;51.466;7.444;2022-12-18T08:08:53;11.73;;;7.22;;
38083;SDS011;23894;51.466;7.444;2022-12-18T08:10:55;11.88;;;7.95;;
38083;SDS011;23894;51.466;7.444;2022-12-18T08:12:56;11.23;;;7.55;;
38083;SDS011;23894;51.466;7.444;2022-12-18T08:14:57;12.80;;;8.25;;
38083;SDS011;23894;51.466;7.444;2022-12-18T08:16:57;11.52;;;8.07;;
38083;SDS011;23894;51.466;7.444;2022-12-18T08:18:58;10.60;;;7.22;;
38083;SDS011;23894;51.466;7.444;2022-12-18T08:21:07;12.05;;;8.07;;
38083;SDS011;23894;51.466;7.444;2022-12-18T08:23:09;9.88;;;7.45;;
38083;SDS011;23894;51.466;7.444;2022-12-18T08:25:09;12.57;;;8.07;;
38083;SDS011;23894;51.466;7.444;2022-12-18T08:27:10;12.43;;;7.97;;
38083;SDS011;23894;51.466;7.444;2022-12-18T08:29:10;11.63;;;7.60;;
38083;SDS011;23894;51.466;7.444;2022-12-18T08:31:11;12.73;;;7.95;;
38083;SDS011;23894;51.466;7.444;2022-12-18T08:33:12;11.98;;;7.38;;
38083;SDS011;23894;51.466;7.444;2022-12-18T08:35:12;12.80;;;8.52;;
38083;SDS011;23894;51.466;7.444;2022-12-18T08:37:13;11.02;;;7.40;;
38083;SDS011;23894;51.466;7.444;2022-12-18T08:39:14;13.95;;;7.60;;
38083;SDS011;23894;51.466;7.444;2022-12-18T08:41:15;10.50;;;7.05;;
38083;SDS011;23894;51.466;7.444;2022-12-18T08:43:16;11.60;;;7.70;;
38083;SDS011;23894;51.466;7.444;2022-12-18T08:45:36;13.20;;;7.85;;
38083;SDS011;23894;51.466;7.444;2022-12-18T08:47:36;10.20;;;7.53;;
38083;SDS011;23894;51.466;7.444;2022-12-18T08:49:37;13.50;;;8.35;;
38083;SDS011;23894;51.466;7.444;2022-12-18T08:51:37;13.52;;;8.40;;
38083;SDS011;23894;51.466;7.444;2022-12-18T08:53:38;13.45;;;8.55;;
38083;SDS011;23894;51.466;7.444;2022-12-18T08:55:39;11.80;;;8.43;;
38083;SDS011;23894;51.466;7.444;2022-12-18T08:57:40;11.48;;;8.30;;
38083;SDS011;23894;51.466;7.444;2022-12-18T08:59:40;11.98;;;8.55;;
38083;SDS011;23894;51.466;7.444;2022-12-18T09:01:41;13.05;;;7.85;;
38083;SDS011;23894;51.466;7.444;2022-12-18T09:03:41;14.13;;;8.20;;
38083;SDS011;23894;51.466;7.444;2022-12-18T09:05:42;14.45;;;7.50;;
38083;SDS011;23894;51.466;7.444;2022-12-18T09:07:45;10.15;;;7.60;;
38083;SDS011;23894;51.466;7.444;2022-12-18T09:09:45;10.35;;;7.45;;
38083;SDS011;23894;51.466;7.444;2022-12-18T09:11:46;11.45;;;8.10;;
38083;SDS011;23894;51.466;7.444;2022-12-18T09:13:46;10.98;;;7.75;;
38083;SDS011;23894;51.466;7.444;2022-12-18T09:15:48;10.65;;;7.75;;
38083;SDS011;23894;51.466;7.444;2022-12-18T09:17:53;11.63;;;6.80;;
38083;SDS011;23894;51.466;7.444;2022-12-18T09:19:53;11.18;;;6.90;;
38083;SDS011;23894;51.466;7.444;2022-12-18T09:21:54;10.73;;;6.65;;
38083;SDS011;23894;51.466;7.444;2022-12-18T09:23:55;8.82;;;5.40;;
38083;SDS011;23894;51.466;7.444;2022-12-18T09:25:59;9.75;;;5.57;;
38083;SDS011;23894;51.466;7.444;2022-12-18T09:27:59;11.52;;;5.63;;
38083;SDS011;23894;51.466;7.444;2022-12-18T09:30:00;7.78;;;5.18;;
38083;SDS011;23894;51.466;7.444;2022-12-18T09:32:01;7.38;;;5.28;;
38083;SDS011;23894;51.466;7.444;2022-12-18T09:34:03;9.18;;;5.38;;
38083;SDS011;23894;51.466;7.444;2022-12-18T09:36:08;9.68;;;5.18;;
38083;SDS011;23894;51.466;7.444;2022-12-18T09:38:12;8.68;;;5.28;;
38083;SDS011;23894;51.466;7.444;2022-12-18T09:40:15;8.63;;;5.03;;
38083;SDS011;23894;51.466;7.444;2022-12-18T09:42:19;8.48;;;5.30;;
38083;SDS011;23894;51.466;7.444;2022-12-18T09:46:33;8.05;;;4.85;;
38083;SDS011;23894;51.466;7.444;2022-12-18T09:48:40;8.27;;;5.13;;
38083;SDS011;23894;51.466;7.444;2022-12-18T09:50:44;8.80;;;5.47;;
38083;SDS011;23894;51.466;7.444;2022-12-18T09:52:47;9.07;;;5.03;;
38083;SDS011;23894;51.466;7.444;2022-12-18T09:54:57;7.53;;;4.88;;
38083;SDS011;23894;51.466;7.444;2022-12-18T09:57:28;8.43;;;5.00;;
38083;SDS011;23894;51.466;7.444;2022-12-18T09:59:35;9.20;;;6.57;;
38083;SDS011;23894;51.466;7.444;2022-12-18T10:01:39;7.80;;;5.05;;
38083;SDS011;23894;51.466;7.444;2022-12-18T10:03:40;7.13;;;4.43;;
38083;SDS011;23894;51.466;7.444;2022-12-18T10:05:43;8.10;;;4.90;;
38083;SDS011;23894;51.466;7.444;2022-12-18T10:10:10;7.32;;;4.90;;
38083;SDS011;23894;51.466;7.444;2022-12-18T10:21:42;7.50;;;4.63;;
38083;SDS011;23894;51.466;7.444;2022-12-18T10:23:57;8.32;;;4.72;;
38083;SDS011;23894;51.466;7.444;2022-12-18T10:26:24;8.75;;;4.70;;
38083;SDS011;23894;51.466;7.444;2022-12-18T10:28:25;6.70;;;4.32;;
38083;SDS011;23894;51.466;7.444;2022-12-18T10:30:29;7.30;;;3.85;;
38083;SDS011;23894;51.466;7.444;2022-12-18T10:32:30;7.80;;;4.32;;
38083;SDS011;23894;51.466;7.444;2022-12-18T10:36:31;7.17;;;4.33;;
38083;SDS011;23894;51.466;7.444;2022-12-18T10:38:31;6.72;;;3.95;;
38083;SDS011;23894;51.466;7.444;2022-12-18T10:40:32;7.00;;;4.25;;
38083;SDS011;23894;51.466;7.444;2022-12-18T10:43:51;7.50;;;4.22;;
38083;SDS011;23894;51.466;7.444;2022-12-18T10:45:27;7.72;;;4.28;;
38083;SDS011;23894;51.466;7.444;2022-12-18T10:47:27;9.77;;;4.95;;
38083;SDS011;23894;51.466;7.444;2022-12-18T10:49:31;8.95;;;4.70;;
38083;SDS011;23894;51.466;7.444;2022-12-18T10:51:34;14.65;;;6.45;;
38083;SDS011;23894;51.466;7.444;2022-12-18T10:53:37;9.90;;;5.32;;
38083;SDS011;23894;51.466;7.444;2022-12-18T10:55:41;8.68;;;4.63;;
38083;SDS011;23894;51.466;7.444;2022-12-18T10:57:45;11.23;;;5.30;;
38083;SDS011;23894;51.466;7.444;2022-12-18T10:59:50;11.38;;;5.60;;
38083;SDS011;23894;51.466;7.444;2022-12-18T11:01:56;9.38;;;4.07;;
38083;SDS011;23894;51.466;7.444;2022-12-18T11:03:59;6.60;;;3.63;;
38083;SDS011;23894;51.466;7.444;2022-12-18T11:06:15;7.68;;;3.65;;
38083;SDS011;23894;51.466;7.444;2022-12-18T11:08:21;6.78;;;3.90;;
38083;SDS011;23894;51.466;7.444;2022-12-18T11:10:31;6.70;;;3.65;;
38083;SDS011;23894;51.466;7.444;2022-12-18T11:12:33;7.00;;;3.75;;
38083;SDS011;23894;51.466;7.444;2022-12-18T11:14:41;8.35;;;4.43;;
38083;SDS011;23894;51.466;7.444;2022-12-18T11:16:47;8.63;;;4.68;;
38083;SDS011;23894;51.466;7.444;2022-12-18T11:18:50;11.32;;;5.10;;
38083;SDS011;23894;51.466;7.444;2022-12-18T11:20:52;12.63;;;5.15;;
38083;SDS011;23894;51.466;7.444;2022-12-18T11:23:05;9.00;;;5.07;;
38083;SDS011;23894;51.466;7.444;2022-12-18T11:27:18;10.02;;;4.60;;
38083;SDS011;23894;51.466;7.444;2022-12-18T11:29:23;7.22;;;4.88;;
38083;SDS011;23894;51.466;7.444;2022-12-18T11:31:29;7.23;;;4.27;;
38083;SDS011;23894;51.466;7.444;2022-12-18T11:33:33;7.53;;;3.90;;
38083;SDS011;23894;51.466;7.444;2022-12-18T11:37:58;8.40;;;4.38;;
38083;SDS011;23894;51.466;7.444;2022-12-18T11:40:17;10.45;;;4.40;;
38083;SDS011;23894;51.466;7.444;2022-12-18T11:44:49;9.98;;;4.20;;
38083;SDS011;23894;51.466;7.444;2022-12-18T11:49:42;7.50;;;3.95;;
38083;SDS011;23894;51.466;7.444;2022-12-18T11:53:58;14.20;;;4.93;;
38083;SDS011;23894;51.466;7.444;2022-12-18T11:56:02;9.68;;;5.40;;
38083;SDS011;23894;51.466;7.444;2022-12-18T12:12:51;12.23;;;6.57;;
38083;SDS011;23894;51.466;7.444;2022-12-18T12:15:02;9.20;;;4.85;;
38083;SDS011;23894;51.466;7.444;2022-12-18T12:19:35;7.80;;;4.53;;
38083;SDS011;23894;51.466;7.444;2022-12-18T12:22:08;7.32;;;3.75;;
38083;SDS011;23894;51.466;7.444;2022-12-18T12:29:18;7.20;;;3.85;;
38083;SDS011;23894;51.466;7.444;2022-12-18T12:38:20;8.13;;;4.38;;
38083;SDS011;23894;51.466;7.444;2022-12-18T12:40:52;10.60;;;4.10;;
38083;SDS011;23894;51.466;7.444;2022-12-18T12:42:59;8.88;;;4.53;;
38083;SDS011;23894;51.466;7.444;2022-12-18T12:45:17;12.13;;;5.30;;
38083;SDS011;23894;51.466;7.444;2022-12-18T12:47:25;7.25;;;4.32;;
38083;SDS011;23894;51.466;7.444;2022-12-18T12:49:31;9.60;;;4.97;;
38083;SDS011;23894;51.466;7.444;2022-12-18T12:51:37;9.95;;;5.22;;
38083;SDS011;23894;51.466;7.444;2022-12-18T12:53:40;8.48;;;4.80;;
38083;SDS011;23894;51.466;7.444;2022-12-18T12:55:41;10.55;;;5.30;;
38083;SDS011;23894;51.466;7.444;2022-12-18T12:57:48;8.55;;;5.00;;
38083;SDS011;23894;51.466;7.444;2022-12-18T13:02:22;10.07;;;5.28;;
38083;SDS011;23894;51.466;7.444;2022-12-18T13:07:29;10.68;;;5.13;;
38083;SDS011;23894;51.466;7.444;2022-12-18T13:09:35;8.82;;;4.85;;
38083;SDS011;23894;51.466;7.444;2022-12-18T13:12:23;12.73;;;5.38;;
38083;SDS011;23894;51.466;7.444;2022-12-18T13:14:42;7.47;;;4.18;;
38083;SDS011;23894;51.466;7.444;2022-12-18T13:16:43;11.10;;;4.90;;
38083;SDS011;23894;51.466;7.444;2022-12-18T13:18:48;12.18;;;5.38;;
38083;SDS011;23894;51.466;7.444;2022-12-18T13:22:54;34.25;;;15.07;;
38083;SDS011;23894;51.466;7.444;2022-12-18T13:24:55;19.10;;;10.13;;
38083;SDS011;23894;51.466;7.444;2022-12-18T13:26:55;14.50;;;7.35;;
38083;SDS011;23894;51.466;7.444;2022-12-18T13:28:56;12.73;;;7.20;;
38083;SDS011;23894;51.466;7.444;2022-12-18T13:30:58;10.52;;;6.20;;
38083;SDS011;23894;51.466;7.444;2022-12-18T13:37:41;9.93;;;5.43;;
38083;SDS011;23894;51.466;7.444;2022-12-18T13:39:43;10.07;;;6.32;;
38083;SDS011;23894;51.466;7.444;2022-12-18T13:41:45;9.18;;;5.80;;
38083;SDS011;23894;51.466;7.444;2022-12-18T13:43:51;9.88;;;5.75;;
38083;SDS011;23894;51.466;7.444;2022-12-18T13:46:04;9.25;;;6.15;;
38083;SDS011;23894;51.466;7.444;2022-12-18T13:48:24;10.65;;;6.88;;
38083;SDS011;23894;51.466;7.444;2022-12-18T13:50:26;11.98;;;7.20;;
38083;SDS011;23894;51.466;7.444;2022-12-18T13:52:33;10.35;;;6.93;;
38083;SDS011;23894;51.466;7.444;2022-12-18T13:54:39;13.93;;;7.10;;
38083;SDS011;23894;51.466;7.444;2022-12-18T13:56:43;13.77;;;7.20;;
38083;SDS011;23894;51.466;7.444;2022-12-18T13:58:45;15.05;;;7.50;;
38083;SDS011;23894;51.466;7.444;2022-12-18T14:00:46;11.65;;;7.32;;
38083;SDS011;23894;51.466;7.444;2022-12-18T14:02:48;11.43;;;7.18;;
38083;SDS011;23894;51.466;7.444;2022-12-18T14:04:50;13.10;;;7.60;;